createdAt,value
2022-12-16T00:01:56.031Z,93.50
2022-12-16T00:04:26.047Z,93.60
2022-12-16T00:06:55.962Z,93.60
2022-12-16T00:09:26.042Z,93.50
2022-12-16T00:11:56.280Z,93.60
2022-12-16T00:14:26.191Z,93.60
2022-12-16T00:16:56.613Z,93.60
2022-12-16T00:19:26.746Z,93.70
2022-12-16T00:21:57.029Z,93.70
2022-12-16T00:24:26.980Z,93.80
2022-12-16T00:26:57.605Z,93.80
2022-12-16T00:29:27.632Z,93.70
2022-12-16T00:31:57.830Z,93.70
2022-12-16T00:34:28.200Z,93.70
2022-12-16T00:36:58.325Z,93.80
2022-12-16T00:39:28.143Z,93.70
2022-12-16T00:41:58.077Z,93.80
2022-12-16T00:44:28.012Z,93.80
2022-12-16T00:46:57.916Z,93.90
2022-12-16T00:49:27.937Z,94.10
2022-12-16T00:52:00.957Z,94.10
2022-12-16T00:54:32.157Z,94.10
2022-12-16T00:57:02.189Z,94.00
2022-12-16T00:59:32.120Z,93.90
2022-12-16T01:02:02.291Z,93.80
2022-12-16T01:04:32.473Z,93.80
2022-12-16T01:07:02.452Z,93.90
2022-12-16T01:09:33.112Z,94.00
2022-12-16T01:12:02.312Z,94.10
2022-12-16T01:14:32.151Z,94.20
2022-12-16T01:17:04.429Z,93.80
2022-12-16T01:19:35.336Z,93.80
2022-12-16T01:22:05.793Z,93.80
2022-12-16T01:24:35.928Z,93.90
2022-12-16T01:27:05.879Z,93.70
2022-12-16T01:29:35.774Z,93.70
2022-12-16T01:32:06.281Z,93.90
2022-12-16T01:34:51.042Z,94.00
2022-12-16T01:37:25.969Z,93.90
2022-12-16T01:39:55.879Z,94.00
2022-12-16T01:42:26.016Z,94.10
2022-12-16T01:44:58.135Z,94.30
2022-12-16T01:47:35.249Z,94.30
2022-12-16T01:50:10.250Z,94.20
2022-12-16T01:52:46.011Z,94.10
2022-12-16T01:55:37.137Z,93.90
2022-12-16T01:58:16.194Z,93.80
2022-12-16T02:00:46.504Z,93.90
2022-12-16T02:03:16.781Z,94.00
2022-12-16T02:05:48.656Z,94.00
2022-12-16T02:08:21.588Z,93.80
2022-12-16T02:14:32.952Z,93.80
2022-12-16T02:17:28.087Z,93.60
2022-12-16T02:20:18.047Z,93.60
2022-12-16T02:23:19.530Z,93.40
2022-12-16T02:26:11.604Z,93.30
2022-12-16T02:29:19.130Z,93.10
2022-12-16T02:32:07.881Z,93.00
2022-12-16T02:34:59.845Z,93.00
2022-12-16T02:37:45.137Z,92.80
2022-12-16T02:40:26.886Z,92.50
2022-12-16T02:43:06.829Z,92.40
2022-12-16T02:45:49.539Z,92.60
2022-12-16T02:48:19.411Z,92.30
2022-12-16T02:50:53.384Z,92.00
2022-12-16T02:53:23.898Z,92.20
2022-12-16T02:56:20.465Z,92.10
2022-12-16T02:59:20.584Z,91.90
2022-12-16T03:05:10.643Z,91.80
2022-12-16T03:07:43.124Z,91.60
2022-12-16T03:10:18.516Z,91.70
2022-12-16T03:12:49.038Z,91.70
2022-12-16T03:15:22.492Z,91.60
2022-12-16T03:21:02.217Z,91.50
2022-12-16T03:23:45.080Z,91.20
2022-12-16T03:26:24.008Z,91.30
2022-12-16T03:29:04.795Z,91.30
2022-12-16T03:31:57.613Z,91.00
2022-12-16T03:37:34.177Z,90.90
2022-12-16T05:00:47.934Z,87.30
2022-12-16T05:03:27.963Z,87.60
2022-12-16T05:06:08.003Z,86.50
2022-12-16T05:08:48.321Z,85.70
2022-12-16T05:11:28.380Z,84.50
2022-12-16T05:14:15.149Z,84.30
2022-12-16T05:16:58.733Z,84.90
2022-12-16T05:19:39.477Z,84.10
2022-12-16T05:22:19.059Z,84.70
2022-12-16T05:24:59.467Z,83.90
2022-12-16T05:27:39.409Z,83.50
2022-12-16T05:30:20.421Z,84.40
2022-12-16T05:33:09.184Z,82.80
2022-12-16T05:35:50.138Z,83.00
2022-12-16T05:38:30.195Z,81.80
2022-12-16T05:41:10.551Z,83.00
2022-12-16T05:43:50.546Z,83.10
2022-12-16T05:46:30.947Z,82.60
2022-12-16T05:49:10.940Z,81.70
2022-12-16T05:51:51.463Z,81.70
2022-12-16T05:54:31.257Z,81.50
2022-12-16T05:57:11.557Z,78.10
2022-12-16T05:59:51.716Z,78.80
2022-12-16T06:02:32.024Z,78.10
2022-12-16T06:05:12.108Z,77.90
2022-12-16T06:07:52.318Z,79.10
2022-12-16T06:47:44.807Z,74.30
2022-12-16T08:25:47.110Z,76.00
2022-12-16T08:28:31.049Z,74.20
2022-12-16T08:31:11.171Z,75.50
2022-12-16T08:33:58.169Z,75.40
2022-12-16T08:36:41.535Z,75.00
2022-12-16T08:55:03.112Z,76.70
2022-12-16T08:57:42.774Z,77.00
2022-12-16T09:00:23.274Z,76.30
2022-12-16T09:03:13.235Z,76.30
2022-12-16T09:05:54.726Z,76.60
2022-12-16T09:42:39.965Z,77.30
2022-12-16T10:48:20.003Z,86.20
2022-12-16T10:51:00.105Z,87.00
2022-12-16T10:53:50.486Z,86.40
2022-12-16T10:57:10.698Z,87.00
2022-12-16T11:00:00.808Z,87.10
2022-12-16T11:02:51.139Z,87.70
2022-12-16T11:05:52.094Z,88.20
2022-12-16T11:15:42.345Z,88.60
2022-12-16T11:18:32.117Z,88.90
2022-12-16T11:21:32.121Z,89.40
2022-12-16T11:24:33.112Z,89.70
2022-12-16T11:27:32.459Z,89.80
2022-12-16T11:30:23.104Z,90.00
2022-12-16T11:33:12.928Z,90.30
2022-12-16T11:36:03.109Z,90.50
2022-12-16T11:39:03.153Z,90.60
2022-12-16T11:41:54.073Z,90.60
2022-12-16T11:44:43.514Z,90.60
2022-12-16T11:47:43.804Z,90.80
2022-12-16T11:50:33.859Z,91.00
2022-12-16T11:53:14.080Z,91.10
2022-12-16T11:56:10.839Z,91.30
2022-12-16T11:59:04.561Z,91.40
2022-12-16T12:01:55.603Z,91.40
2022-12-16T12:04:45.000Z,91.40
2022-12-16T12:07:45.997Z,91.40
2022-12-16T12:10:55.263Z,91.60
2022-12-16T12:14:15.362Z,91.80
2022-12-16T12:17:15.796Z,91.80
2022-12-16T12:20:15.773Z,91.80
2022-12-16T12:22:55.980Z,91.90
2022-12-16T12:26:16.094Z,91.60
2022-12-16T12:29:26.413Z,91.80
2022-12-16T12:32:46.474Z,92.00
2022-12-16T12:36:06.693Z,92.10
2022-12-16T12:39:26.866Z,92.50
2022-12-16T12:42:27.049Z,92.80
2022-12-16T12:45:37.204Z,92.80
2022-12-16T12:48:47.618Z,93.00
2022-12-16T12:51:57.637Z,92.90
2022-12-16T12:55:07.890Z,92.90
2022-12-16T12:57:58.050Z,93.00
2022-12-16T13:00:48.445Z,93.00
2022-12-16T13:03:58.365Z,93.00
2022-12-16T13:06:38.655Z,92.80
2022-12-16T13:09:48.684Z,93.00
2022-12-16T13:12:48.895Z,93.00
2022-12-16T13:15:59.052Z,93.30
2022-12-16T13:18:49.406Z,93.20
2022-12-16T13:21:59.452Z,93.20
2022-12-16T13:25:09.642Z,93.20
2022-12-16T13:28:09.766Z,93.30
2022-12-16T13:30:50.065Z,93.10
2022-12-16T13:33:50.104Z,93.00
2022-12-16T13:36:40.382Z,92.80
2022-12-16T13:39:40.482Z,92.70
2022-12-16T13:42:50.756Z,92.70
2022-12-16T13:45:50.947Z,92.60
2022-12-16T13:48:51.045Z,92.60
2022-12-16T13:52:11.249Z,92.60
2022-12-16T13:55:11.456Z,92.50
2022-12-16T13:58:01.601Z,92.40
2022-12-16T14:00:52.627Z,92.40
2022-12-16T14:03:42.015Z,92.40
2022-12-16T14:06:32.224Z,92.30
2022-12-16T14:09:12.314Z,92.30
2022-12-16T14:12:22.439Z,92.30
2022-12-16T14:15:12.604Z,92.30
2022-12-16T14:18:12.845Z,92.20
2022-12-16T14:21:02.969Z,92.30
2022-12-16T14:23:57.659Z,92.40
2022-12-16T14:26:43.294Z,92.40
2022-12-16T14:29:43.496Z,92.40
2022-12-16T14:32:43.659Z,92.30
2022-12-16T14:35:33.958Z,92.30
2022-12-16T14:38:44.032Z,92.30
2022-12-16T14:41:44.199Z,92.30
2022-12-16T14:44:34.554Z,92.30
2022-12-16T14:47:14.648Z,92.30
2022-12-16T14:50:14.990Z,92.30
2022-12-16T14:52:54.941Z,92.30
2022-12-16T14:55:54.853Z,92.30
2022-12-16T14:58:45.150Z,92.20
2022-12-16T15:01:40.709Z,92.10
2022-12-16T15:04:35.239Z,92.00
2022-12-16T15:07:30.791Z,91.90
2022-12-16T15:10:15.321Z,91.90
2022-12-16T15:13:05.202Z,91.90
2022-12-16T15:16:05.283Z,91.90
2022-12-16T15:18:55.235Z,91.80
2022-12-16T15:21:45.581Z,91.80
2022-12-16T15:24:35.544Z,91.80
2022-12-16T15:27:46.681Z,91.70
2022-12-16T15:31:05.939Z,91.80
2022-12-16T15:33:56.156Z,91.90
2022-12-16T15:36:46.253Z,92.00
2022-12-16T15:39:46.824Z,92.00
2022-12-16T15:42:40.732Z,92.00
2022-12-16T15:45:47.007Z,92.00
2022-12-16T15:48:47.129Z,92.10
2022-12-16T15:51:57.328Z,92.40
2022-12-16T15:54:37.468Z,92.30
2022-12-16T15:57:47.696Z,92.10
2022-12-16T16:00:38.001Z,92.10
2022-12-16T16:03:38.444Z,92.10
2022-12-16T16:06:28.081Z,92.00
2022-12-16T16:09:08.237Z,91.80
2022-12-16T16:11:48.580Z,91.70
2022-12-16T16:14:29.127Z,91.60
2022-12-16T16:17:08.650Z,91.30
2022-12-16T16:19:49.012Z,91.50
2022-12-16T16:22:39.015Z,91.50
2022-12-16T16:25:19.229Z,91.50
2022-12-16T16:27:59.313Z,91.30
2022-12-16T16:30:43.186Z,91.40
2022-12-16T16:33:29.843Z,91.40
2022-12-16T16:36:10.013Z,91.70
2022-12-16T16:38:50.035Z,91.80
2022-12-16T16:41:30.325Z,91.80
2022-12-16T16:44:12.877Z,91.90
2022-12-16T16:47:00.741Z,92.10
2022-12-16T16:49:50.667Z,92.10
2022-12-16T16:52:41.075Z,92.10
2022-12-16T16:55:41.090Z,92.30
2022-12-16T16:58:31.264Z,92.50
2022-12-16T17:01:20.686Z,92.40
2022-12-16T17:04:01.791Z,92.30
2022-12-16T17:06:41.707Z,92.40
2022-12-16T17:09:21.981Z,92.40
2022-12-16T17:12:02.117Z,92.50
2022-12-16T17:14:42.278Z,92.60
2022-12-16T17:17:22.583Z,92.80
2022-12-16T17:20:02.589Z,92.50
2022-12-16T17:22:42.689Z,92.50
2022-12-16T17:25:23.061Z,92.50
2022-12-16T17:28:03.017Z,92.50
2022-12-16T17:30:47.281Z,92.60
2022-12-16T17:33:33.552Z,92.70
2022-12-16T17:36:14.459Z,92.60
2022-12-16T17:39:03.737Z,92.60
2022-12-16T17:41:53.953Z,92.80
2022-12-16T17:44:33.987Z,92.80
2022-12-16T17:47:14.247Z,92.80
2022-12-16T17:50:04.338Z,92.70
2022-12-16T17:52:45.587Z,92.80
2022-12-16T17:55:38.601Z,92.90
2022-12-16T17:58:25.082Z,93.10
2022-12-16T18:01:05.004Z,93.10
2022-12-16T18:03:46.065Z,92.90
2022-12-16T18:06:35.347Z,93.10
2022-12-16T18:09:15.568Z,93.00
2022-12-16T18:11:55.643Z,93.00
2022-12-16T18:14:35.913Z,93.10
2022-12-16T18:17:16.017Z,93.20
2022-12-16T18:19:56.204Z,93.20
2022-12-16T18:22:36.313Z,93.20
2022-12-16T18:25:17.022Z,93.30
2022-12-16T18:27:56.606Z,93.10
2022-12-16T18:30:36.906Z,93.10
2022-12-16T18:33:16.953Z,93.20
2022-12-16T18:35:58.928Z,93.20
2022-12-16T18:38:47.347Z,93.50
2022-12-16T18:41:37.541Z,93.20
2022-12-16T18:44:27.600Z,93.20
2022-12-16T18:47:17.754Z,93.10
2022-12-16T18:49:58.028Z,93.30
2022-12-16T18:52:38.286Z,93.30
2022-12-16T18:55:28.464Z,93.30
2022-12-16T18:58:21.132Z,93.30
2022-12-16T19:01:18.730Z,93.30
2022-12-16T19:03:58.947Z,93.40
2022-12-16T19:06:39.066Z,93.40
2022-12-16T19:09:19.301Z,93.40
2022-12-16T19:11:59.309Z,93.40
2022-12-16T19:14:48.783Z,93.30
2022-12-16T19:17:29.802Z,93.20
2022-12-16T19:20:09.904Z,93.40
2022-12-16T19:22:49.990Z,93.40
2022-12-16T19:25:30.284Z,93.50
2022-12-16T19:28:10.262Z,93.60
2022-12-16T19:30:51.764Z,93.70
2022-12-16T19:33:40.617Z,93.70
2022-12-16T19:36:20.991Z,93.60
2022-12-16T19:39:00.929Z,93.80
2022-12-16T19:41:41.194Z,93.90
2022-12-16T19:44:21.368Z,93.90
2022-12-16T19:47:01.460Z,93.80
2022-12-16T19:49:44.326Z,93.80
2022-12-16T19:52:31.826Z,93.80
2022-12-16T19:55:16.891Z,93.80
2022-12-16T19:58:02.124Z,93.90
2022-12-16T20:00:51.400Z,93.80
2022-12-16T20:03:32.536Z,93.80
2022-12-16T20:06:12.560Z,93.70
2022-12-16T20:08:52.914Z,93.80
2022-12-16T20:11:43.017Z,93.70
2022-12-16T20:14:33.295Z,93.80
2022-12-16T20:17:13.305Z,93.70
2022-12-16T20:19:53.666Z,93.80
2022-12-16T20:22:43.609Z,93.80
2022-12-16T20:25:23.959Z,93.80
2022-12-16T20:28:03.908Z,93.70
2022-12-16T20:30:44.213Z,93.60
2022-12-16T20:33:34.412Z,93.60
2022-12-16T20:36:24.943Z,93.60
2022-12-16T20:39:04.686Z,93.70
2022-12-16T20:41:44.893Z,93.80
2022-12-16T20:44:24.901Z,93.90
2022-12-16T20:47:14.337Z,93.90
2022-12-16T20:49:55.248Z,93.90
2022-12-16T20:52:46.394Z,94.00
2022-12-16T20:55:35.532Z,94.00
2022-12-16T20:58:15.755Z,93.90
2022-12-16T21:00:56.408Z,94.00
2022-12-16T21:03:36.142Z,94.20
2022-12-16T21:06:26.245Z,94.20
2022-12-16T21:09:06.519Z,94.00
2022-12-16T21:11:46.540Z,94.10
2022-12-16T21:14:26.866Z,94.00
2022-12-16T21:17:06.883Z,94.10
2022-12-16T21:19:47.146Z,94.10
2022-12-16T21:22:27.214Z,94.00
2022-12-16T21:25:08.289Z,93.90
2022-12-16T21:27:57.545Z,93.90
2022-12-16T21:30:47.812Z,94.10
2022-12-16T21:33:37.904Z,94.20
2022-12-16T21:36:28.634Z,94.50
2022-12-16T21:39:09.247Z,94.20
2022-12-16T21:41:58.493Z,94.20
2022-12-16T21:44:38.588Z,94.10
2022-12-16T21:47:18.903Z,94.00
2022-12-16T21:49:58.874Z,94.00
2022-12-16T21:52:39.129Z,94.00
2022-12-16T21:55:19.256Z,93.90
2022-12-16T21:57:59.445Z,93.90
2022-12-16T22:00:39.550Z,94.00
2022-12-16T22:03:19.749Z,94.00
2022-12-16T22:05:59.863Z,94.10
2022-12-16T22:08:40.114Z,94.10
2022-12-16T22:11:30.214Z,94.10
2022-12-16T22:14:10.424Z,94.10
2022-12-16T22:16:50.532Z,94.10
2022-12-16T22:19:40.795Z,94.10
2022-12-16T22:22:20.910Z,94.10
2022-12-16T22:25:01.070Z,94.10
2022-12-16T22:27:41.225Z,94.10
2022-12-16T22:30:31.531Z,94.10
2022-12-16T22:33:11.528Z,94.00
2022-12-16T22:35:52.393Z,94.00
2022-12-16T22:38:41.847Z,94.10
2022-12-16T22:41:22.605Z,94.20
2022-12-16T22:44:02.195Z,94.30
2022-12-16T22:46:42.509Z,94.30
2022-12-16T22:49:22.519Z,94.20
2022-12-16T22:52:02.797Z,94.20
2022-12-16T22:54:42.823Z,94.30
2022-12-16T22:57:23.058Z,94.40
2022-12-16T23:00:03.158Z,94.50
2022-12-16T23:02:43.345Z,94.60
2022-12-16T23:05:27.557Z,94.70
2022-12-16T23:08:13.645Z,94.70
2022-12-16T23:10:53.806Z,94.70
2022-12-16T23:13:44.161Z,94.70
2022-12-16T23:16:24.184Z,94.70
2022-12-16T23:19:04.341Z,94.70
2022-12-16T23:21:44.446Z,94.70
2022-12-16T23:24:24.753Z,94.70
2022-12-16T23:27:04.751Z,94.60
2022-12-16T23:29:44.983Z,94.50
2022-12-16T23:32:25.074Z,94.50
2022-12-16T23:38:25.432Z,94.70
2022-12-16T23:41:15.713Z,94.70
2022-12-16T23:43:55.718Z,94.70
2022-12-16T23:46:36.525Z,94.60
2022-12-16T23:49:16.039Z,94.70
2022-12-16T23:51:56.271Z,94.70
2022-12-16T23:54:36.364Z,94.50
2022-12-16T23:57:16.656Z,94.60
2022-12-16T23:59:56.686Z,94.60
